Coalport, PA (16627)

4:26 PM EST on December 18, 2014 (GMT -0500)
NE Indiana County Pa. | Change Station
CLOSE
Current Station
Personal Weather Station
Location: Cherry Tree, PA
Elevation: 1601 ft
Nearby Weather Stations

Elev 1601 ft 40.78 °N, 78.81 °W | Updated 47 seconds ago

Overcast
Overcast
28.9 °F
Feels Like 29 °F
N
1.0
Wind Variable Wind from North
Gusts 1.0 mph

Today
High -- | Low -- °F
--% Chance of Precip.
Yesterday
High -- | Low -- °F
Precip. -- in
7:33 AM 4:48 PM
Waning Crescent, 12% visible
Pressure 30.07 in
Visibility 10.0 miles
Clouds Overcast 1600 ft
Windchill 29 °F
Dew Point 26 °F
Humidity 90%
Rainfall 0.00 in
Snow Depth Not available.
UV 0 out of 12
Pollen .10 out of 12
Air Quality Not available.
Flu Activity Not available.
SPECI KFIG 182105Z AUTO 28009G16KT 10SM OVC016 M02/M05 A3007 RMK AO2 T10171050

More Conditions Fewer Conditions

Pressure 30.07 in
Visibility 10.0 miles
Clouds Overcast 1600 ft
Windchill 29 °F
Dew Point 26 °F
Humidity 90%
Rainfall 0.00 in
Snow Depth Not available.
UV 0 out of 12
Pollen .10 out of 12
Air Quality Not available.
Flu Activity Not available.
SPECI KFIG 182105Z AUTO 28009G16KT 10SM OVC016 M02/M05 A3007 RMK AO2 T10171050

More Conditions Fewer Conditions

Nowcast | as of 12:32 PM EST on December 18, 2014

at 1230 PM EST...Doppler radar indicated snow showers over Clearfield County. Patchy freezing drizzle may mix in with the snow showers at times. Please use caution if you will be travelling over the higher terrain of the County as roads may become slippery. For those driving on Interstate 80...this includes areas between the DuBois Route 255 and Kylertown exits...specifically from mile markers 102 to 127. This includes the following highways... Route 219 from Mahaffey to south of DuBois. Route 322 from south of DuBois to near Wallaceton. State Road 153 from near S.B. Elliot State Park to Penfield. State Road 255 near Penfield.

×

10-Day Weather Forecast

Almanac

Astronomy

Dec. 18, 2014 Rise Set
Actual Time
Civil Twilight
Nautical Twilight
Astronomical Twilight
Moon
Length of Visible Light
Length of Day
Tomorrow will be .
, % of the Moon is Illuminated

Today's Extremes

State Highs State Lows

Community

WunderPhotos

Upload Photos

1,778,997 photos uploaded!

WunderBlogs® & News

Nearby

Air Quality

  Air Quality AQ Index Pollutant
Not available.

Snow Depth

Station Depth Elevation

Earthquake Activity

City Distance Mag. Time & Date
Minimum magnitude displayed is 2.5.

Coastal Water Temperatures

Place Temperature

Nearby Weather Stations